• Join FlightAware (Why Join?)
  • Login
  • US Flag 
01:29AM EST


 

Airport Tracker/Info


-or-


 

Live Flight TrackerFlight Track Log ✈ ASQ5685 ✈ 21-Apr-2013 ✈ KBTV - KIAD

Flight Track Log - Related Links

Times and Time Zones

All times are in EDT time to prevent confusion due to time zone crossing. See the ASQ5685 flight status page for this flight to view local times or setup timezone preferences in your user account.

Time Position Orientation Groundspeed Altitude Reporting Facility
EDT Latitude Longitude Course Direction KTS MPH feet Rate Location/Type
02:38PM 44.5042 -73.2814 195° South 202 232 5,300  Level Boston Center
02:39PM 44.4289 -73.2978 189° South 220 253 8,200 2,700 Climbing Boston Center
02:40PM 44.1191 -73.2791 196° South  Level FlightAware Approximate
02:40PM 44.3558 -73.3169 191° South 275 316 10,800  Level Boston Center
02:41PM 44.0324 -73.3138 196° South  Level FlightAware Approximate
02:41PM 44.2681 -73.3447 193° South 314 361 12,400  Level Boston Center
02:42PM 43.9457 -73.3484 196° South  Level FlightAware Approximate
02:42PM 44.1700 -73.3750 192° South 354 407 14,000  Level Boston Center
02:43PM 43.8588 -73.3819 195° South  Level FlightAware Approximate
02:43PM 44.0656 -73.4081 193° South 380 437 15,600  Level Boston Center
02:44PM 43.7717 -73.4141 195° South  Level FlightAware Approximate
02:44PM 43.9256 -73.4519 193° South 392 451 17,700  Level Boston Center
02:45PM 43.8147 -73.4844 192° South 402 463 18,600 1,080 Climbing Boston Center
02:46PM 43.7042 -73.5169 192° South 402 463 19,900 1,260 Climbing Boston Center
02:47PM 43.5933 -73.5494 192° South 407 468 21,200 1,200 Climbing Boston Center
02:48PM 43.4825 -73.5817 192° South 412 474 22,300 1,080 Climbing Boston Center
02:49PM 43.3717 -73.6169 193° South 412 474 23,400 900 Climbing Boston Center
02:50PM 43.2608 -73.6489 192° South 412 474 24,200 720 Climbing Boston Center
02:51PM 43.1481 -73.6808 192° South 412 474 24,900 660 Climbing Boston Center
02:52PM 43.0372 -73.7183 194° South 412 474 25,600 660 Climbing Boston Center
02:53PM 42.9242 -73.7528 193° South 412 474 26,300 660 Climbing Boston Center
02:54PM 42.8133 -73.7844 192° South 412 474 27,000 600 Climbing Boston Center
02:55PM 42.7067 -73.8244 195° South 412 474 27,500 480 Climbing Boston Center
02:56PM 42.5997 -73.8700 197° South 412 474 28,000 240 Climbing Boston Center
02:57PM 42.4969 -73.9183 199° South 406 467 28,000  Level Boston Center
02:58PM 42.3881 -73.9692 199° South 406 467 28,000  Level Boston Center
02:59PM 42.2789 -74.0172 198° South 411 473 28,000  Level Boston Center
03:00PM 42.1661 -74.0394 188° South 411 473 28,000  Level Boston Center
03:01PM 42.0492 -74.0478 183° South 416 479 28,000  Level Boston Center
03:02PM 41.9367 -74.0531 182° South 416 479 28,000  Level Boston Center
03:03PM 41.8303 -74.0589 182° South 403 464 28,000  Level Boston Center
03:04PM 41.7531 -74.0625 182° South 386 444 28,000  Level Boston Center
03:06PM 41.5792 -74.0186 169° South 366 421 28,000  Level New York Center
03:07PM 41.4853 -74.0278 184° South 348 400 28,000  Level New York Center
03:08PM 41.3867 -74.0533 191° South 349 402 28,000  Level New York Center
03:09PM 41.3114 -74.1381 220° Southwest 338 389 28,000  Level New York Center
03:10PM 41.2297 -74.2250 219° Southwest 357 411 28,000  Level New York Center
03:11PM 41.1522 -74.3119 220° Southwest 373 429 28,000  Level New York Center
03:12PM 41.0703 -74.4014 219° Southwest 378 435 28,000  Level New York Center
03:13PM 40.9906 -74.4906 220° Southwest 378 435 28,000  Level New York Center
03:14PM 40.9147 -74.5822 222° Southwest 378 435 28,000  Level New York Center
03:15PM 40.9022 -74.7053 262° West 356 410 28,000  Level New York Center
03:16PM 41.0053 -74.7442 344° North 248 285 28,000  Level New York Center
03:17PM 41.0800 -74.6247 50° Northeast 242 278 28,000  Level New York Center
03:18PM 41.0261 -74.4869 117° Southeast 245 282 28,000  Level New York Center
03:19PM 40.9458 -74.5208 198° South 179 206 28,000  Level New York Center
03:20PM 40.8992 -74.6117 236° Southwest 211 243 28,000  Level New York Center
03:21PM 40.8667 -74.7114 247° West 253 291 28,000  Level New York Center
03:22PM 40.8361 -74.8167 249° West 281 323 28,000  Level New York Center
03:23PM 40.8058 -74.9108 247° West 293 337 28,000 -300 Level New York Center
03:24PM 40.7750 -75.0131 248° West 299 344 27,500 -780 Descending New York Center
03:25PM 40.7419 -75.1206 248° West 309 356 26,500 -1,080 Descending New York Center
03:26PM 40.6903 -75.2211 236° Southwest 314 361 25,500 -780 Descending New York Center
03:27PM 40.6319 -75.3294 235° Southwest 341 392 25,000 -600 Descending New York Center
03:28PM 40.5753 -75.4433 237° Southwest 363 418 24,300 -900 Descending New York Center
03:29PM 40.5167 -75.5567 236° Southwest 377 434 23,300 -1,020 Descending New York Center
03:30PM 40.4514 -75.6722 233° Southwest 389 448 22,300 -1,020 Descending New York Center
03:31PM 40.3900 -75.7931 236° Southwest 394 453 21,300 -960 Descending New York Center
03:32PM 40.3206 -75.9106 232° Southwest 401 461 20,400 -660 Descending New York Center
03:33PM 40.2589 -76.0311 236° Southwest 408 470 20,000 -240 Descending New York Center
03:34PM 40.1928 -76.1539 235° Southwest 408 470 20,000  Level New York Center
03:35PM 40.1336 -76.2633 235° Southwest 414 476 20,000  Level New York Center
03:36PM 40.0736 -76.3861 237° Southwest 414 476 20,000 -660 Level New York Center
03:38PM 39.9667 -76.6167 239° Southwest 409 471 18,400 -780 Descending Potomac TRACON
03:39PM 39.9167 -76.7333 241° Southwest 399 459 18,000 -720 Descending Potomac TRACON
03:40PM 39.8667 -76.8500 241° Southwest 393 452 17,000 -1,020 Descending Potomac TRACON
03:41PM 39.8000 -76.9667 233° Southwest 389 448 16,000 -1,140 Descending Potomac TRACON
03:42PM 39.7500 -77.1000 244° Southwest 382 440 14,800 -1,800 Descending Potomac TRACON
03:43PM 39.6833 -77.2167 233° Southwest 376 433 12,400 -2,340 Descending Potomac TRACON
03:44PM 39.6000 -77.2833 212° Southwest 331 381 10,200 -1,800 Descending Potomac TRACON
03:45PM 39.5333 -77.3167 201° Southwest 283 326 8,800 -1,500 Descending Potomac TRACON
03:46PM 39.4667 -77.3500 201° Southwest 273 314 7,200 -900 Descending Potomac TRACON
03:47PM 39.3833 -77.3667 189° South 274 315 7,000 -720 Descending Potomac TRACON
03:48PM 39.3167 -77.3667 180° South 272 313 5,800 -1,080 Descending Potomac TRACON
03:49PM 39.2333 -77.3667 180° South 266 306 4,900 -900 Descending Potomac TRACON
03:50PM 39.1667 -77.3500 169° South 268 308 4,100 -420 Descending Potomac TRACON
03:51PM 39.0833 -77.3500 180° South 272 313 4,100  Level Potomac TRACON
03:52PM 39.0000 -77.3500 180° South 263 303 4,100  Level Potomac TRACON
03:53PM 38.9333 -77.3500 180° South 264 304 4,100 -360 Level Potomac TRACON
03:54PM 38.8667 -77.3500 180° South 259 298 3,400 -720 Descending Potomac TRACON